Time;durP1;ratioP1;P1;durP2;ratioP2;P2;SDS_P1;SDS_P2;PMS_P1;PMS_P2;Temp;Humidity;BMP_temperature;BMP_pressure;BME280_temperature;BME280_humidity;BME280_pressure;Samples;Min_cycle;Max_cycle;Signal;HPM_P1;HPM_P2
2022/05/28 00:00:37;;;;;;;26.50;24.70;;;15.50;73.80;;;;;;5077844;28;20455;-75
2022/05/28 00:03:04;;;;;;;26.50;24.80;;;15.30;75.00;;;;;;5080045;28;20537;-75
2022/05/28 00:05:33;;;;;;;27.73;26.23;;;15.40;75.40;;;;;;5085127;28;20560;-78
2022/05/28 00:08:00;;;;;;;27.10;25.60;;;15.30;75.80;;;;;;5080922;28;20446;-75
2022/05/28 00:10:27;;;;;;;27.47;25.60;;;15.30;76.00;;;;;;5082039;28;20484;-76
2022/05/28 00:12:56;;;;;;;27.23;25.37;;;15.20;76.90;;;;;;5079453;28;20476;-75
2022/05/28 00:15:24;;;;;;;27.20;25.50;;;15.20;77.20;;;;;;5085974;28;20481;-73
2022/05/28 00:17:51;;;;;;;26.60;25.10;;;15.20;77.10;;;;;;5085395;28;20463;-73
2022/05/28 00:20:18;;;;;;;26.87;25.27;;;15.20;77.40;;;;;;5084108;28;20818;-74
2022/05/28 00:22:47;;;;;;;26.93;25.40;;;15.20;78.20;;;;;;5083509;28;20454;-74
2022/05/28 00:25:16;;;;;;;27.53;25.73;;;15.20;78.30;;;;;;5072868;28;20478;-73
2022/05/28 00:27:43;;;;;;;27.07;25.47;;;15.10;79.30;;;;;;5077304;28;20454;-73
2022/05/28 00:30:13;;;;;;;28.07;26.20;;;15.00;80.20;;;;;;5079769;28;20454;-74
2022/05/28 00:32:40;;;;;;;28.43;26.63;;;15.10;80.80;;;;;;5078565;28;20489;-74
2022/05/28 00:35:10;;;;;;;28.83;27.00;;;15.10;81.30;;;;;;5086907;28;20937;-74
2022/05/28 00:37:37;;;;;;;28.00;26.23;;;15.00;79.60;;;;;;5077468;28;20476;-73
2022/05/28 00:40:09;;;;;;;28.87;27.00;;;14.90;79.70;;;;;;5076404;28;20462;-74
2022/05/28 00:42:36;;;;;;;27.77;25.77;;;14.90;79.20;;;;;;5087090;28;20470;-73
2022/05/28 00:45:03;;;;;;;27.33;25.53;;;14.70;80.70;;;;;;5084062;28;20483;-73
2022/05/28 00:47:31;;;;;;;28.10;26.30;;;14.70;81.70;;;;;;5086281;28;20454;-73
2022/05/28 00:49:58;;;;;;;27.63;25.80;;;14.70;82.60;;;;;;5085932;28;20460;-73
2022/05/28 00:52:27;;;;;;;28.77;26.87;;;14.80;82.60;;;;;;5079647;28;20494;-73
2022/05/28 00:54:54;;;;;;;28.33;26.47;;;14.70;82.70;;;;;;5078464;28;20504;-74
2022/05/28 00:57:24;;;;;;;27.03;25.00;;;14.70;82.80;;;;;;5078118;28;20994;-73
2022/05/28 00:59:50;;;;;;;27.30;25.20;;;14.70;83.10;;;;;;5082937;28;20824;-73
2022/05/28 01:02:22;;;;;;;27.43;25.33;;;14.70;81.90;;;;;;5079466;28;20461;-74
2022/05/28 01:04:55;;;;;;;28.53;26.20;;;14.70;82.40;;;;;;5082412;28;20484;-73
2022/05/28 01:07:31;;;;;;;27.20;25.30;;;14.70;82.80;;;;;;5086028;28;20463;-74
2022/05/28 01:10:05;;;;;;;28.10;25.90;;;14.70;82.20;;;;;;5081071;28;20461;-74
2022/05/28 01:12:41;;;;;;;27.30;25.80;;;14.70;82.10;;;;;;5081709;28;20503;-74
2022/05/28 01:15:12;;;;;;;28.53;26.80;;;14.70;82.50;;;;;;5079204;28;20477;-74
2022/05/28 01:17:42;;;;;;;29.17;27.03;;;14.70;81.90;;;;;;5079752;28;20541;-73
2022/05/28 01:20:17;;;;;;;29.90;27.70;;;14.60;80.90;;;;;;5076814;28;20476;-73
2022/05/28 01:23:10;;;;;;;29.07;26.80;;;14.60;80.30;;;;;;5079005;28;20450;-73
2022/05/28 01:25:47;;;;;;;29.17;26.67;;;14.50;78.50;;;;;;5086434;28;20546;-74
2022/05/28 01:28:20;;;;;;;28.90;27.03;;;14.50;79.70;;;;;;5080777;28;20826;-74
2022/05/28 01:30:48;;;;;;;27.10;25.50;;;14.50;80.60;;;;;;5080656;28;20485;-75
2022/05/28 01:33:17;;;;;;;28.40;26.70;;;14.50;80.60;;;;;;5079999;28;20474;-75
2022/05/28 01:35:46;;;;;;;28.70;26.40;;;14.50;80.50;;;;;;5087642;28;20482;-75
2022/05/28 01:38:14;;;;;;;27.40;25.70;;;14.50;80.70;;;;;;5084058;28;20460;-74
2022/05/28 01:40:42;;;;;;;28.13;26.43;;;14.50;79.80;;;;;;5078294;28;20819;-75
2022/05/28 01:43:12;;;;;;;28.23;25.90;;;14.50;78.80;;;;;;5081485;28;20802;-74
2022/05/28 01:45:44;;;;;;;29.40;27.50;;;14.30;76.10;;;;;;5083733;28;20484;-75
2022/05/28 01:48:13;;;;;;;30.13;27.77;;;14.20;76.50;;;;;;5073854;28;20458;-76
2022/05/28 01:50:44;;;;;;;28.20;26.10;;;14.20;77.60;;;;;;5072784;28;20925;-76
2022/05/28 01:54:06;;;;;;;28.00;26.10;;;14.20;76.90;;;;;;5082418;28;20564;-77
2022/05/28 01:56:02;;;;;;;28.10;26.10;;;14.10;77.00;;;;;;5082802;28;20461;-77
2022/05/28 01:58:30;;;;;;;27.60;25.80;;;14.00;76.20;;;;;;5085609;28;20886;-74
2022/05/28 02:00:59;;;;;;;28.77;26.63;;;13.80;76.00;;;;;;5079654;28;20465;-75
2022/05/28 02:03:27;;;;;;;29.27;27.00;;;13.80;75.20;;;;;;5077843;28;20546;-73
2022/05/28 02:05:55;;;;;;;28.40;26.27;;;13.80;75.70;;;;;;5082275;28;20801;-74
2022/05/28 02:08:23;;;;;;;27.73;25.93;;;13.80;74.00;;;;;;5085238;28;20481;-74
2022/05/28 02:11:02;;;;;;;28.57;26.43;;;13.60;73.40;;;;;;5082414;28;20470;-73
2022/05/28 02:13:35;;;;;;;28.10;26.20;;;13.60;74.70;;;;;;5082581;28;20835;-74
2022/05/28 02:16:11;;;;;;;27.53;25.80;;;13.50;74.80;;;;;;5091754;28;20473;-72
2022/05/28 02:18:46;;;;;;;27.03;25.07;;;13.40;73.80;;;;;;5085870;28;20449;-73
2022/05/28 02:21:20;;;;;;;27.50;25.73;;;13.50;73.70;;;;;;5078428;28;20473;-73
2022/05/28 02:23:51;;;;;;;31.57;29.37;;;13.50;72.60;;;;;;5077530;28;20453;-73
2022/05/28 02:26:22;;;;;;;27.70;25.60;;;13.50;72.50;;;;;;5081649;28;20473;-79
2022/05/28 02:28:49;;;;;;;28.83;26.70;;;13.40;72.90;;;;;;5084152;28;20465;-74
2022/05/28 02:31:19;;;;;;;28.20;26.40;;;13.20;73.90;;;;;;5078062;28;20823;-75
2022/05/28 02:33:47;;;;;;;29.63;27.57;;;13.00;73.70;;;;;;5085336;28;20482;-75
2022/05/28 02:36:16;;;;;;;29.03;27.23;;;13.00;73.70;;;;;;5084159;28;20863;-74
2022/05/28 02:38:43;;;;;;;31.40;29.00;;;12.90;73.70;;;;;;5085775;28;20459;-74
2022/05/28 02:41:10;;;;;;;29.47;27.57;;;12.90;73.60;;;;;;5087525;28;20837;-74
2022/05/28 02:43:37;;;;;;;29.07;26.73;;;12.90;74.20;;;;;;5085769;28;20450;-75
2022/05/28 02:46:06;;;;;;;28.13;26.03;;;13.00;73.40;;;;;;5081103;28;20649;-75
2022/05/28 02:48:35;;;;;;;27.33;25.50;;;12.90;72.60;;;;;;5078481;28;20549;-75
2022/05/28 02:51:03;;;;;;;28.10;26.10;;;12.70;73.40;;;;;;5081435;28;20453;-75
2022/05/28 02:53:30;;;;;;;28.33;25.87;;;12.70;74.30;;;;;;5080197;28;20477;-76
2022/05/28 02:55:57;;;;;;;28.73;26.63;;;12.70;73.70;;;;;;5085211;28;20482;-74
2022/05/28 02:58:24;;;;;;;28.30;26.10;;;12.70;74.10;;;;;;5082397;28;20464;-76
2022/05/28 03:00:51;;;;;;;28.47;26.57;;;12.70;74.70;;;;;;5081859;28;20466;-74
2022/05/28 03:03:19;;;;;;;27.83;25.97;;;12.70;74.70;;;;;;5084184;28;20573;-74
2022/05/28 03:05:48;;;;;;;28.47;26.23;;;12.70;74.10;;;;;;5088476;28;20478;-75
2022/05/28 03:08:15;;;;;;;29.77;27.83;;;12.70;73.90;;;;;;5088660;28;20445;-74
2022/05/28 03:10:42;;;;;;;26.77;25.00;;;12.70;74.70;;;;;;5080912;28;20469;-74
2022/05/28 03:13:09;;;;;;;27.73;25.80;;;12.70;74.50;;;;;;5081784;28;20469;-73
2022/05/28 03:15:37;;;;;;;29.00;26.97;;;12.70;72.90;;;;;;5088264;28;20563;-73
2022/05/28 03:18:04;;;;;;;27.73;25.60;;;12.70;72.70;;;;;;5085186;28;20481;-72
2022/05/28 03:20:31;;;;;;;26.50;24.73;;;12.70;72.30;;;;;;5087193;28;20524;-73
2022/05/28 03:23:00;;;;;;;26.70;25.10;;;12.60;72.60;;;;;;5082837;28;20597;-73
2022/05/28 03:25:27;;;;;;;27.87;25.97;;;12.60;72.80;;;;;;5085446;28;20473;-73
2022/05/28 03:27:53;;;;;;;27.00;25.00;;;12.50;72.80;;;;;;5086377;28;20552;-73
2022/05/28 03:30:20;;;;;;;28.00;25.90;;;12.50;73.30;;;;;;5083823;28;20462;-73
2022/05/28 03:32:47;;;;;;;27.60;25.40;;;12.60;73.00;;;;;;5077340;28;21788;-73
2022/05/28 03:35:14;;;;;;;27.00;24.90;;;12.60;72.60;;;;;;5084900;28;20477;-73
2022/05/28 03:37:41;;;;;;;29.73;27.50;;;12.60;72.30;;;;;;5083925;28;20468;-73
2022/05/28 03:40:11;;;;;;;28.37;26.43;;;12.60;72.40;;;;;;5079758;28;20456;-73
2022/05/28 03:42:38;;;;;;;27.87;26.00;;;12.70;72.30;;;;;;5083521;28;20985;-73
2022/05/28 03:45:05;;;;;;;27.70;25.80;;;12.70;72.50;;;;;;5081529;28;20466;-73
2022/05/28 03:47:33;;;;;;;27.57;25.60;;;12.70;71.70;;;;;;5084809;28;20527;-73
2022/05/28 03:50:00;;;;;;;28.27;25.60;;;12.70;72.00;;;;;;5081672;28;20542;-73
2022/05/28 03:52:27;;;;;;;28.10;26.17;;;12.80;72.30;;;;;;5086086;28;20460;-72
2022/05/28 03:54:54;;;;;;;27.67;25.53;;;12.90;71.30;;;;;;5080449;28;20478;-73
2022/05/28 03:57:26;;;;;;;25.83;23.93;;;12.90;71.70;;;;;;5084294;28;20808;-73
2022/05/28 03:59:53;;;;;;;27.27;24.97;;;12.90;72.60;;;;;;5080319;28;21036;-73
2022/05/28 04:02:20;;;;;;;29.27;27.00;;;12.90;72.80;;;;;;5081742;28;20454;-73
2022/05/28 04:04:47;;;;;;;26.80;24.53;;;13.00;73.00;;;;;;5084803;28;20461;-73
2022/05/28 04:07:15;;;;;;;29.50;27.70;;;13.10;72.90;;;;;;5085163;28;21073;-73
2022/05/28 04:09:42;;;;;;;26.13;24.27;;;13.20;72.70;;;;;;5079535;28;20472;-73
2022/05/28 04:12:09;;;;;;;26.63;24.20;;;13.10;74.00;;;;;;5081265;28;20529;-73
2022/05/28 04:14:37;;;;;;;25.70;24.07;;;13.10;74.30;;;;;;5083971;28;20488;-72
2022/05/28 04:17:05;;;;;;;26.80;24.57;;;13.20;74.10;;;;;;5080698;28;20458;-74
2022/05/28 04:19:33;;;;;;;25.60;23.90;;;13.20;74.70;;;;;;5080853;28;20738;-76
2022/05/28 04:22:00;;;;;;;26.20;24.10;;;13.00;76.00;;;;;;5080698;28;20458;-76
2022/05/28 04:24:27;;;;;;;26.10;24.07;;;13.00;76.70;;;;;;5084947;28;20462;-74
2022/05/28 04:26:54;;;;;;;26.27;24.27;;;13.10;75.40;;;;;;5081899;28;20458;-74
2022/05/28 04:29:21;;;;;;;25.93;24.20;;;12.90;76.30;;;;;;5083778;28;20459;-74
2022/05/28 04:31:49;;;;;;;25.87;24.03;;;12.90;76.80;;;;;;5088357;28;20533;-76
2022/05/28 04:34:16;;;;;;;25.87;24.10;;;12.90;77.00;;;;;;5077815;28;20569;-72
2022/05/28 04:36:43;;;;;;;26.57;24.77;;;13.10;75.80;;;;;;5076729;28;20482;-75
2022/05/28 04:39:10;;;;;;;27.60;25.27;;;13.30;73.10;;;;;;5074950;28;20489;-75
2022/05/28 04:41:37;;;;;;;26.30;24.30;;;13.20;73.20;;;;;;5081283;28;20464;-74
2022/05/28 04:44:04;;;;;;;27.23;25.20;;;13.10;74.70;;;;;;5084303;28;20536;-75
2022/05/28 04:46:31;;;;;;;26.30;24.20;;;13.20;73.20;;;;;;5085519;28;20557;-74
2022/05/28 04:48:59;;;;;;;26.70;24.67;;;13.20;72.40;;;;;;5082384;28;20460;-76
2022/05/28 04:51:26;;;;;;;25.97;24.27;;;13.30;70.90;;;;;;5082294;28;20461;-75
2022/05/28 04:53:53;;;;;;;25.60;23.70;;;13.30;70.20;;;;;;5084496;28;20503;-74
2022/05/28 04:56:20;;;;;;;26.10;24.00;;;13.30;69.10;;;;;;5079002;28;20480;-74
2022/05/28 04:58:47;;;;;;;27.60;25.70;;;13.30;68.50;;;;;;5084938;28;20462;-75
2022/05/28 05:01:15;;;;;;;27.00;24.97;;;13.30;69.30;;;;;;5077928;28;20458;-72
2022/05/28 05:03:42;;;;;;;27.10;25.40;;;13.40;69.70;;;;;;5079354;28;20453;-74
2022/05/28 05:06:11;;;;;;;26.10;24.50;;;13.60;68.70;;;;;;5085051;28;20577;-73
2022/05/28 05:08:38;;;;;;;28.13;25.47;;;13.70;67.30;;;;;;5083299;28;20454;-73
2022/05/28 05:11:05;;;;;;;30.20;28.30;;;13.80;67.50;;;;;;5078875;28;20458;-75
2022/05/28 05:13:32;;;;;;;26.57;24.80;;;13.80;68.50;;;;;;5083595;28;20834;-76
2022/05/28 05:15:59;;;;;;;27.80;25.40;;;13.90;66.70;;;;;;5081345;28;20582;-74
2022/05/28 05:18:25;;;;;;;28.90;26.70;;;13.70;66.70;;;;;;5085329;28;20837;-76
2022/05/28 05:20:52;;;;;;;26.90;24.80;;;13.70;67.10;;;;;;5083952;28;20450;-75
2022/05/28 05:23:20;;;;;;;28.07;25.93;;;13.90;66.70;;;;;;5082338;28;20458;-73
2022/05/28 05:25:47;;;;;;;28.30;26.10;;;13.90;66.50;;;;;;5076090;28;20485;-75
2022/05/28 05:28:14;;;;;;;26.57;24.50;;;14.00;67.30;;;;;;5080400;28;20485;-78
2022/05/28 05:30:41;;;;;;;26.50;24.40;;;14.20;67.30;;;;;;5084404;28;20457;-74
2022/05/28 05:33:08;;;;;;;25.43;23.53;;;14.20;65.00;;;;;;5082409;28;20472;-79
2022/05/28 05:35:35;;;;;;;27.17;25.20;;;13.90;65.70;;;;;;5079643;28;20484;-74
2022/05/28 05:38:05;;;;;;;26.20;24.30;;;13.80;66.00;;;;;;5083098;28;20472;-78
2022/05/28 05:40:34;;;;;;;26.23;24.17;;;13.40;66.80;;;;;;5086784;28;20453;-78
2022/05/28 05:43:01;;;;;;;25.73;24.03;;;13.20;68.00;;;;;;5081015;28;20456;-73
2022/05/28 05:45:28;;;;;;;26.80;24.90;;;13.10;68.60;;;;;;5086640;28;20473;-73
2022/05/28 05:47:55;;;;;;;26.57;24.50;;;13.10;69.00;;;;;;5082214;28;20478;-75
2022/05/28 05:50:22;;;;;;;27.00;25.10;;;13.20;68.70;;;;;;5085519;28;20978;-75
2022/05/28 05:52:49;;;;;;;26.87;24.97;;;13.10;68.10;;;;;;5084281;28;20557;-75
2022/05/28 05:55:16;;;;;;;27.80;25.30;;;12.70;69.50;;;;;;5067844;28;20485;-75
2022/05/28 05:57:44;;;;;;;27.70;25.57;;;12.60;69.80;;;;;;5085084;28;20457;-75
2022/05/28 06:00:12;;;;;;;31.90;29.70;;;12.60;70.60;;;;;;5067840;28;20458;-78
2022/05/28 06:02:39;;;;;;;26.90;24.60;;;12.90;69.90;;;;;;5078221;28;20457;-71
2022/05/28 06:05:07;;;;;;;27.87;25.70;;;13.10;68.20;;;;;;5083751;28;20481;-71
2022/05/28 06:07:34;;;;;;;26.23;24.47;;;12.90;68.50;;;;;;5086007;28;21175;-72
2022/05/28 06:10:00;;;;;;;27.93;25.57;;;12.90;68.70;;;;;;5076741;28;20458;-73
2022/05/28 06:12:27;;;;;;;27.50;25.50;;;13.00;69.40;;;;;;5082878;28;20457;-73
2022/05/28 06:14:56;;;;;;;26.63;24.97;;;13.20;68.40;;;;;;5075144;28;20601;-74
2022/05/28 06:17:22;;;;;;;25.93;24.23;;;13.10;67.50;;;;;;5081029;28;20452;-75
2022/05/28 06:19:49;;;;;;;27.23;25.10;;;13.00;66.70;;;;;;5079134;28;20469;-74
2022/05/28 06:22:16;;;;;;;25.90;24.10;;;13.00;67.50;;;;;;5078271;28;20982;-75
2022/05/28 06:24:43;;;;;;;26.20;23.90;;;13.10;67.40;;;;;;5083885;28;20470;-75
2022/05/28 06:27:10;;;;;;;28.93;26.63;;;13.10;67.60;;;;;;5080558;28;20489;-73
2022/05/28 06:29:37;;;;;;;25.83;24.00;;;13.30;67.50;;;;;;5069505;28;20551;-72
2022/05/28 06:32:06;;;;;;;27.03;24.97;;;13.40;64.90;;;;;;5079037;28;20468;-70
2022/05/28 06:34:33;;;;;;;25.80;23.90;;;13.20;64.70;;;;;;5078515;28;20473;-71
2022/05/28 06:37:00;;;;;;;25.77;23.97;;;13.00;65.80;;;;;;5085793;28;20459;-72
2022/05/28 06:39:27;;;;;;;26.80;25.07;;;13.20;65.10;;;;;;5083707;28;20823;-72
2022/05/28 06:41:54;;;;;;;26.87;25.00;;;13.40;64.60;;;;;;5090572;28;20461;-71
2022/05/28 06:44:21;;;;;;;24.73;23.10;;;13.60;63.30;;;;;;5085952;28;20808;-71
2022/05/28 06:46:47;;;;;;;26.07;24.37;;;13.60;60.40;;;;;;5075472;28;20963;-71
2022/05/28 06:49:18;;;;;;;25.83;24.23;;;13.60;60.30;;;;;;5077082;28;20944;-73
2022/05/28 06:51:45;;;;;;;28.00;26.00;;;13.70;60.00;;;;;;5079961;28;20466;-73
2022/05/28 06:54:12;;;;;;;24.40;23.10;;;13.90;59.90;;;;;;5077999;28;20505;-72
2022/05/28 06:56:39;;;;;;;24.53;22.80;;;13.60;60.10;;;;;;5078249;28;20489;-71
2022/05/28 06:59:06;;;;;;;24.33;22.60;;;13.50;60.90;;;;;;5067149;28;20454;-75
2022/05/28 07:01:33;;;;;;;26.40;24.80;;;13.60;60.90;;;;;;5072697;28;20483;-73
2022/05/28 07:04:01;;;;;;;24.33;22.77;;;13.60;60.30;;;;;;5080758;28;20568;-72
2022/05/28 07:06:31;;;;;;;24.03;22.53;;;13.40;60.90;;;;;;5084880;28;20469;-71
2022/05/28 07:08:58;;;;;;;26.47;24.60;;;13.60;61.10;;;;;;5073963;28;20520;-72
2022/05/28 07:11:26;;;;;;;26.50;24.77;;;13.80;60.50;;;;;;5083035;28;20457;-71
2022/05/28 07:13:53;;;;;;;24.70;23.20;;;13.90;59.60;;;;;;5079139;28;20468;-72
2022/05/28 07:16:20;;;;;;;25.40;23.70;;;13.80;59.70;;;;;;5078078;28;20512;-71
2022/05/28 07:18:47;;;;;;;26.37;24.30;;;13.90;59.60;;;;;;5079449;28;20464;-73
2022/05/28 07:21:14;;;;;;;26.60;24.90;;;14.00;58.30;;;;;;5077369;28;20456;-73
2022/05/28 07:23:45;;;;;;;26.10;24.27;;;14.20;58.80;;;;;;5072379;28;20454;-74
2022/05/28 07:26:14;;;;;;;24.60;22.90;;;14.20;58.40;;;;;;5080547;28;20472;-70
2022/05/28 07:28:44;;;;;;;26.77;24.67;;;14.20;58.40;;;;;;5085923;28;20462;-74
2022/05/28 07:31:13;;;;;;;25.17;23.53;;;14.30;58.70;;;;;;5085584;28;20457;-74
2022/05/28 07:33:42;;;;;;;29.30;27.50;;;14.30;58.70;;;;;;5083858;28;20485;-75
2022/05/28 07:36:10;;;;;;;24.97;23.37;;;14.30;58.50;;;;;;5079096;28;20484;-74
2022/05/28 07:38:38;;;;;;;25.20;23.70;;;14.60;57.80;;;;;;5077024;28;20481;-77
2022/05/28 07:41:08;;;;;;;25.53;23.80;;;14.60;57.80;;;;;;5080558;28;20816;-79
2022/05/28 07:43:36;;;;;;;26.00;24.17;;;14.60;57.40;;;;;;5083027;28;20585;-75
2022/05/28 07:46:03;;;;;;;25.50;23.97;;;14.70;57.30;;;;;;5082531;28;20879;-73
2022/05/28 07:48:30;;;;;;;24.73;23.23;;;14.70;56.90;;;;;;5079818;28;20462;-76
2022/05/28 07:50:57;;;;;;;24.90;23.30;;;14.60;57.40;;;;;;5073858;28;20944;-73
2022/05/28 07:53:24;;;;;;;23.90;22.50;;;14.50;57.20;;;;;;5076703;28;20486;-73
2022/05/28 07:55:51;;;;;;;25.07;23.37;;;14.40;57.40;;;;;;5081693;28;20488;-75
2022/05/28 07:58:21;;;;;;;24.70;23.20;;;14.50;57.70;;;;;;5068440;28;20506;-76
2022/05/28 08:00:49;;;;;;;24.73;23.23;;;14.70;56.80;;;;;;5076483;28;20858;-74
2022/05/28 08:03:17;;;;;;;23.80;22.50;;;14.80;55.20;;;;;;5080122;28;20458;-76
2022/05/28 08:05:46;;;;;;;28.00;26.23;;;14.80;53.50;;;;;;5073896;28;21014;-75
2022/05/28 08:08:14;;;;;;;24.70;23.30;;;14.80;52.70;;;;;;5076375;28;20458;-77
2022/05/28 08:10:41;;;;;;;24.17;22.87;;;15.00;51.90;;;;;;5084031;28;20880;-73
2022/05/28 08:13:15;;;;;;;25.50;23.80;;;15.40;53.50;;;;;;5077310;28;20482;-76
2022/05/28 08:15:44;;;;;;;24.60;23.30;;;15.70;53.60;;;;;;5080850;28;20470;-73
2022/05/28 08:18:13;;;;;;;24.60;22.70;;;15.60;51.60;;;;;;5082679;28;20596;-73
2022/05/28 08:23:24;;;;;;;25.03;23.60;;;15.60;52.40;;;;;;5080152;28;20487;-75
2022/05/28 08:25:51;;;;;;;25.17;23.53;;;15.90;51.70;;;;;;5078919;28;20461;-78
2022/05/28 08:28:20;;;;;;;26.10;24.43;;;15.90;52.20;;;;;;5080434;28;20544;-73
2022/05/28 08:30:49;;;;;;;24.47;23.07;;;15.60;53.20;;;;;;5083085;28;20441;-74
2022/05/28 08:33:18;;;;;;;25.43;23.60;;;15.60;53.70;;;;;;5081173;28;20460;-74
2022/05/28 08:35:55;;;;;;;25.00;23.50;;;15.80;53.10;;;;;;5083955;28;20488;-73
2022/05/28 08:38:24;;;;;;;24.70;23.30;;;15.90;53.20;;;;;;5082975;28;20453;-72
2022/05/28 08:40:57;;;;;;;24.57;23.10;;;16.20;53.00;;;;;;5083529;28;20876;-73
2022/05/28 08:43:27;;;;;;;24.70;23.30;;;15.80;53.80;;;;;;5087926;28;20453;-74
2022/05/28 08:45:55;;;;;;;23.53;22.13;;;15.80;54.30;;;;;;5088420;28;20526;-71
2022/05/28 08:48:28;;;;;;;26.53;24.90;;;16.00;53.90;;;;;;5084637;28;20538;-71
2022/05/28 08:50:58;;;;;;;26.40;24.90;;;16.30;54.10;;;;;;5082375;28;21042;-71
2022/05/28 08:53:29;;;;;;;24.10;22.83;;;16.40;53.00;;;;;;5088117;28;20464;-71
2022/05/28 08:55:58;;;;;;;24.13;22.73;;;16.30;52.60;;;;;;5083365;28;20673;-71
2022/05/28 08:58:28;;;;;;;24.83;23.13;;;16.40;52.80;;;;;;5082853;28;20450;-71
2022/05/28 09:01:02;;;;;;;27.33;25.50;;;16.50;52.40;;;;;;5083769;28;21616;-71
2022/05/28 09:03:40;;;;;;;25.00;23.50;;;16.50;53.00;;;;;;5087691;28;20462;-71
2022/05/28 09:06:11;;;;;;;26.57;24.77;;;16.90;52.90;;;;;;5082025;28;20482;-72
2022/05/28 09:08:41;;;;;;;24.67;23.17;;;17.30;52.00;;;;;;5083341;28;20450;-72
2022/05/28 09:11:12;;;;;;;26.37;24.87;;;17.40;51.70;;;;;;5081225;28;20461;-71
2022/05/28 09:13:44;;;;;;;25.07;23.70;;;17.40;50.30;;;;;;5082089;28;20449;-72
2022/05/28 09:16:21;;;;;;;26.67;25.07;;;17.20;51.40;;;;;;5086304;28;20474;-71
2022/05/28 09:18:50;;;;;;;26.70;25.00;;;17.10;52.30;;;;;;5081565;28;20457;-70
2022/05/28 09:21:18;;;;;;;25.63;24.10;;;17.30;51.20;;;;;;5084155;28;20458;-71
2022/05/28 09:23:50;;;;;;;25.70;24.10;;;17.50;50.70;;;;;;5088247;28;20471;-71
2022/05/28 09:26:26;;;;;;;25.13;23.63;;;17.50;50.60;;;;;;5088612;28;20826;-71
2022/05/28 09:29:08;;;;;;;25.40;23.90;;;17.10;51.20;;;;;;5100601;28;20456;-72
2022/05/28 09:31:50;;;;;;;25.20;23.67;;;16.90;51.90;;;;;;5094872;28;20489;-72
2022/05/28 09:34:36;;;;;;;24.90;23.50;;;16.90;51.30;;;;;;5095960;28;20452;-74
2022/05/28 09:37:14;;;;;;;25.10;23.60;;;17.00;51.20;;;;;;5087129;28;20489;-74
2022/05/28 09:39:50;;;;;;;25.27;23.67;;;17.00;51.70;;;;;;5100274;28;20951;-72
2022/05/28 09:42:25;;;;;;;25.70;24.10;;;17.30;50.90;;;;;;5098790;28;22373;-72
2022/05/28 09:45:06;;;;;;;27.10;25.40;;;17.10;51.60;;;;;;5100266;27;20469;-73
2022/05/28 09:47:46;;;;;;;26.80;24.90;;;17.00;51.40;;;;;;5098917;28;20456;-72
2022/05/28 09:50:26;;;;;;;27.80;26.20;;;17.00;52.40;;;;;;5081357;28;20454;-77
2022/05/28 09:55:55;;;;;;;26.80;25.23;;;17.40;51.60;;;;;;5084439;28;20796;-73
2022/05/28 09:58:29;;;;;;;25.70;24.10;;;17.50;51.20;;;;;;5085337;28;20453;-72
2022/05/28 10:01:08;;;;;;;27.30;25.70;;;17.30;50.80;;;;;;5080937;28;20456;-72
2022/05/28 10:06:26;;;;;;;25.30;23.90;;;17.70;49.30;;;;;;5079950;28;21071;-72
2022/05/28 10:08:53;;;;;;;25.47;24.00;;;18.00;49.50;;;;;;5072910;28;20469;-73
2022/05/28 10:11:22;;;;;;;25.13;23.43;;;18.40;48.60;;;;;;5074064;28;20472;-71
2022/05/28 10:13:51;;;;;;;24.10;22.77;;;18.60;47.60;;;;;;5080592;28;21218;-71
2022/05/28 10:16:20;;;;;;;25.63;24.03;;;18.50;46.20;;;;;;5082799;28;20485;-71
2022/05/28 10:18:55;;;;;;;23.90;22.50;;;18.30;47.50;;;;;;5087298;28;20537;-76
2022/05/28 10:21:28;;;;;;;23.87;22.50;;;18.60;46.90;;;;;;5078354;28;20460;-73
2022/05/28 10:23:59;;;;;;;25.70;24.17;;;18.60;47.50;;;;;;5078281;28;20469;-73
2022/05/28 10:26:30;;;;;;;25.40;24.00;;;18.70;48.70;;;;;;5086064;28;20554;-71
2022/05/28 10:29:01;;;;;;;27.00;24.87;;;18.20;46.50;;;;;;5084731;28;20464;-73
2022/05/28 10:31:31;;;;;;;27.27;25.67;;;17.70;46.80;;;;;;5080573;28;20462;-74
2022/05/28 10:34:00;;;;;;;26.33;24.73;;;17.60;48.70;;;;;;5082895;28;20458;-74
2022/05/28 10:36:30;;;;;;;24.80;23.37;;;17.90;49.00;;;;;;5086319;28;20469;-72
2022/05/28 10:39:09;;;;;;;25.40;23.80;;;18.50;48.70;;;;;;5082895;28;20483;-72
2022/05/28 10:41:36;;;;;;;26.57;24.83;;;18.60;48.40;;;;;;5080626;28;20457;-72
2022/05/28 10:44:04;;;;;;;25.47;23.83;;;18.40;48.70;;;;;;5082938;28;20454;-72
2022/05/28 10:46:42;;;;;;;25.10;23.37;;;18.20;49.30;;;;;;5074735;28;20480;-72
2022/05/28 10:49:27;;;;;;;27.07;24.77;;;18.20;49.70;;;;;;5081196;28;20814;-77
2022/05/28 10:51:58;;;;;;;24.80;23.40;;;18.20;49.80;;;;;;5078285;28;20456;-73
2022/05/28 10:54:49;;;;;;;25.80;24.13;;;17.90;50.80;;;;;;5077929;28;20959;-75
2022/05/28 10:57:49;;;;;;;25.13;23.53;;;17.30;51.20;;;;;;5085722;28;20862;-72
2022/05/28 11:00:20;;;;;;;25.50;23.97;;;17.30;52.20;;;;;;5082537;28;20536;-70
2022/05/28 11:03:17;;;;;;;26.27;24.77;;;17.60;51.50;;;;;;5086044;28;20479;-70
2022/05/28 11:06:28;;;;;;;25.47;23.77;;;18.30;48.80;;;;;;5079958;28;20477;-70
2022/05/28 11:09:04;;;;;;;24.50;23.10;;;18.20;48.20;;;;;;5033202;28;20496;-73
2022/05/28 11:11:46;;;;;;;25.30;23.70;;;18.00;48.60;;;;;;5079929;28;21054;-70
2022/05/28 11:14:33;;;;;;;26.40;24.90;;;18.00;49.10;;;;;;5083666;28;20453;-71
2022/05/28 11:17:15;;;;;;;25.63;24.20;;;18.40;47.60;;;;;;5087480;28;21215;-71
2022/05/28 11:19:56;;;;;;;26.70;25.30;;;18.10;47.70;;;;;;5082182;28;20453;-74
2022/05/28 11:22:43;;;;;;;24.60;22.80;;;18.00;47.70;;;;;;5077927;28;20461;-71
2022/05/28 11:25:16;;;;;;;26.00;24.57;;;18.20;47.80;;;;;;5081711;28;20473;-72
2022/05/28 11:27:56;;;;;;;25.10;23.70;;;18.40;48.00;;;;;;5078160;28;20486;-74
2022/05/28 11:30:30;;;;;;;25.00;23.70;;;18.30;45.50;;;;;;5083067;28;20672;-70
2022/05/28 11:33:02;;;;;;;25.00;23.40;;;17.90;48.20;;;;;;5084411;28;20457;-70
2022/05/28 11:35:40;;;;;;;27.10;25.60;;;17.80;48.60;;;;;;5082817;28;20477;-70
2022/05/28 11:38:14;;;;;;;24.50;23.00;;;17.70;45.70;;;;;;5081351;28;20472;-71
2022/05/28 11:41:00;;;;;;;25.60;24.03;;;17.80;45.70;;;;;;5084010;28;20539;-70
2022/05/28 11:43:31;;;;;;;25.50;23.80;;;17.90;45.40;;;;;;5080850;28;20481;-69
2022/05/28 11:46:03;;;;;;;26.13;24.73;;;18.30;45.40;;;;;;5080989;28;20470;-70
2022/05/28 11:51:30;;;;;;;24.40;23.10;;;17.90;46.60;;;;;;5087906;28;20448;-73
2022/05/28 11:54:04;;;;;;;26.47;24.67;;;17.80;46.50;;;;;;5084752;28;20818;-72
2022/05/28 11:56:33;;;;;;;24.50;23.00;;;18.00;46.00;;;;;;5083910;28;20513;-71
2022/05/28 11:59:04;;;;;;;25.53;23.80;;;18.30;45.90;;;;;;5083883;28;21002;-78
2022/05/28 12:01:38;;;;;;;26.87;25.07;;;18.50;45.70;;;;;;5078869;28;20454;-72
2022/05/28 12:04:06;;;;;;;26.40;24.80;;;18.60;46.00;;;;;;5083223;28;20469;-72
2022/05/28 12:06:36;;;;;;;26.03;24.43;;;18.20;45.00;;;;;;5085790;28;20469;-75
2022/05/28 12:09:09;;;;;;;26.77;25.07;;;18.20;45.80;;;;;;5073637;28;20465;-70
2022/05/28 12:11:46;;;;;;;26.07;24.60;;;18.50;45.00;;;;;;5073292;28;20457;-70
2022/05/28 12:14:32;;;;;;;23.80;22.40;;;19.00;44.80;;;;;;5075660;28;20461;-69
2022/05/28 12:17:08;;;;;;;25.17;23.67;;;19.40;43.90;;;;;;5069292;28;20482;-73
2022/05/28 12:19:43;;;;;;;26.33;24.80;;;20.00;44.30;;;;;;5073791;28;21045;-73
2022/05/28 12:22:28;;;;;;;24.60;23.03;;;20.50;43.60;;;;;;5078596;28;20452;-73
2022/05/28 12:25:16;;;;;;;26.07;24.37;;;20.80;40.90;;;;;;5069730;28;20482;-73
2022/05/28 12:27:49;;;;;;;25.03;23.57;;;20.50;41.70;;;;;;5070425;28;20454;-73
2022/05/28 12:30:30;;;;;;;24.13;22.53;;;19.70;43.10;;;;;;5070483;28;20470;-69
2022/05/28 12:32:58;;;;;;;24.80;23.40;;;19.10;44.60;;;;;;5078405;28;20460;-69
2022/05/28 12:35:48;;;;;;;24.60;23.10;;;19.00;45.40;;;;;;5085687;28;20831;-70
2022/05/28 12:38:26;;;;;;;24.60;23.20;;;19.00;45.50;;;;;;5081665;28;20460;-69
2022/05/28 12:40:56;;;;;;;27.00;25.50;;;19.10;45.20;;;;;;5087356;28;20461;-70
2022/05/28 12:43:31;;;;;;;25.70;24.10;;;19.00;45.70;;;;;;5082181;28;20460;-70
2022/05/28 12:46:11;;;;;;;25.43;23.63;;;19.20;45.20;;;;;;5086801;28;20487;-70
2022/05/28 12:48:40;;;;;;;24.53;23.23;;;19.30;45.20;;;;;;5082853;28;20950;-71
2022/05/28 12:51:29;;;;;;;26.17;24.43;;;19.60;45.20;;;;;;5086693;28;20539;-73
2022/05/28 12:53:58;;;;;;;24.60;23.10;;;19.70;45.10;;;;;;5083487;28;20447;-72
2022/05/28 12:56:40;;;;;;;24.73;23.23;;;19.50;45.40;;;;;;5080519;28;21078;-72